Time;durP1;ratioP1;P1;durP2;ratioP2;P2;SDS_P1;SDS_P2;PMS_P1;PMS_P2;Temp;Humidity;BMP_temperature;BMP_pressure;BME280_temperature;BME280_humidity;BME280_pressure;Samples;Min_cycle;Max_cycle;Signal;HPM_P1;HPM_P2
2022/08/17 00:00:20;;;;;;;;;;;;;;;24.83;48.05;98952.94;4338098;32;34382;-77
2022/08/17 00:03:11;;;;;;;;;;;;;;;24.90;47.97;98947.97;4337298;32;34221;-77
2022/08/17 00:05:43;;;;;;;;;;;;;;;24.90;47.81;98947.97;4344476;32;33369;-77
2022/08/17 00:08:13;;;;;;;;;;;;;;;24.84;47.86;98945.81;4339212;32;33765;-77
2022/08/17 00:10:43;;;;;;;;;;;;;;;24.95;47.53;98951.06;4339821;33;32467;-76
2022/08/17 00:13:16;;;;;;;;;;;;;;;24.80;48.06;98950.56;4338152;32;34139;-77
2022/08/17 00:15:44;;;;;;;;;;;;;;;24.82;47.99;98948.63;4335663;32;32439;-75
2022/08/17 00:18:13;;;;;;;;;;;;;;;24.70;48.45;98947.84;4338926;32;33380;-77
2022/08/17 00:21:03;;;;;;;;;;;;;;;24.87;47.88;98948.25;4339350;32;34006;-76
2022/08/17 00:23:38;;;;;;;;;;;;;;;24.80;47.99;98950.56;4349551;32;33634;-76
2022/08/17 00:26:16;;;;;;;;;;;;;;;24.63;48.50;98954.63;4338045;32;34110;-76
2022/08/17 00:29:06;;;;;;;;;;;;;;;24.73;48.37;98951.22;4339023;32;33289;-77
2022/08/17 00:31:35;;;;;;;;;;;;;;;24.58;48.70;98951.50;4341995;32;34535;-76
2022/08/17 00:34:04;;;;;;;;;;;;;;;24.54;48.79;98952.72;4335428;33;33488;-76
2022/08/17 00:36:33;;;;;;;;;;;;;;;24.61;48.57;98945.12;4333844;32;34513;-77
2022/08/17 00:39:01;;;;;;;;;;;;;;;24.40;49.14;98945.03;4337472;32;34115;-76
2022/08/17 00:41:34;;;;;;;;;;;;;;;24.54;48.73;98943.94;4326422;32;33693;-76
2022/08/17 00:44:03;;;;;;;;;;;;;;;24.47;48.98;98946.25;4339936;32;35001;-77
2022/08/17 00:46:33;;;;;;;;;;;;;;;24.55;48.75;98954.44;4338758;32;34588;-76
2022/08/17 00:49:02;;;;;;;;;;;;;;;24.54;48.83;98949.25;4339170;32;34869;-77
2022/08/17 00:51:31;;;;;;;;;;;;;;;24.49;48.84;98957.56;4339204;33;34648;-76
2022/08/17 00:54:04;;;;;;;;;;;;;;;24.49;48.86;98953.09;4344719;33;34807;-77
2022/08/17 00:56:34;;;;;;;;;;;;;;;24.44;48.97;98951.78;4336456;32;34480;-76
2022/08/17 00:59:04;;;;;;;;;;;;;;;24.34;49.24;98953.50;4338498;32;32725;-76
2022/08/17 01:01:32;;;;;;;;;;;;;;;24.42;49.07;98956.37;4336216;32;33907;-76
2022/08/17 01:04:01;;;;;;;;;;;;;;;24.33;49.23;98949.16;4336768;32;32374;-77
2022/08/17 01:06:29;;;;;;;;;;;;;;;24.32;49.27;98956.28;4344114;32;34345;-76
2022/08/17 01:08:58;;;;;;;;;;;;;;;24.33;49.28;98954.47;4337735;32;32672;-77
2022/08/17 01:11:26;;;;;;;;;;;;;;;24.34;49.29;98964.13;4337531;32;33914;-77
2022/08/17 01:13:56;;;;;;;;;;;;;;;24.34;49.39;98961.47;4338079;32;33930;-76
2022/08/17 01:16:26;;;;;;;;;;;;;;;24.31;49.55;98969.66;4343901;32;33869;-76
2022/08/17 01:18:55;;;;;;;;;;;;;;;24.45;49.24;98969.34;4338795;32;34006;-76
2022/08/17 01:21:27;;;;;;;;;;;;;;;24.42;49.32;98970.47;4338670;32;34447;-77
2022/08/17 01:23:57;;;;;;;;;;;;;;;24.28;49.51;98973.41;4337603;32;34259;-76
2022/08/17 01:26:25;;;;;;;;;;;;;;;24.05;50.03;98969.97;4338310;32;35938;-76
2022/08/17 01:28:54;;;;;;;;;;;;;;;24.26;49.38;98967.41;4343180;32;33366;-76
2022/08/17 01:31:24;;;;;;;;;;;;;;;24.01;50.08;98976.47;4338305;32;34262;-76
2022/08/17 01:33:53;;;;;;;;;;;;;;;23.72;51.14;98979.59;4335439;32;34333;-76
2022/08/17 01:36:21;;;;;;;;;;;;;;;23.75;51.54;98982.06;4337677;32;33968;-76
2022/08/17 01:38:50;;;;;;;;;;;;;;;24.12;50.21;98975.62;4343877;32;33252;-76
2022/08/17 01:41:22;;;;;;;;;;;;;;;24.13;50.32;98977.28;4337281;32;33981;-77
2022/08/17 01:43:52;;;;;;;;;;;;;;;24.03;50.42;98972.72;4335584;32;33193;-76
2022/08/17 01:46:22;;;;;;;;;;;;;;;24.12;50.27;98975.62;4330840;32;34029;-76
2022/08/17 01:48:50;;;;;;;;;;;;;;;24.04;50.23;98984.16;4340911;32;33280;-78
2022/08/17 01:51:19;;;;;;;;;;;;;;;24.23;49.78;98984.38;4343019;32;33744;-77
2022/08/17 01:53:48;;;;;;;;;;;;;;;24.23;49.96;98979.06;4341263;33;34316;-77
2022/08/17 01:56:18;;;;;;;;;;;;;;;24.20;50.04;98989.91;4336820;32;34184;-76
2022/08/17 01:58:48;;;;;;;;;;;;;;;24.23;50.26;98972.94;4337882;32;34813;-76
2022/08/17 02:01:17;;;;;;;;;;;;;;;24.08;50.75;98979.47;4341528;32;33150;-77
2022/08/17 02:03:46;;;;;;;;;;;;;;;23.83;51.50;98976.97;4337437;32;34395;-76
2022/08/17 02:06:28;;;;;;;;;;;;;;;24.07;51.15;98978.63;4336157;32;33717;-77
2022/08/17 02:08:57;;;;;;;;;;;;;;;23.97;51.34;98977.66;4340244;32;33151;-77
2022/08/17 02:11:31;;;;;;;;;;;;;;;23.76;51.69;98973.13;4339702;32;34267;-76
2022/08/17 02:14:01;;;;;;;;;;;;;;;23.88;51.50;98968.66;4343732;32;35038;-76
2022/08/17 02:16:32;;;;;;;;;;;;;;;23.81;51.65;98968.31;4339835;32;34065;-76
2022/08/17 02:19:06;;;;;;;;;;;;;;;23.83;51.51;98970.84;4339842;32;32499;-76
2022/08/17 02:21:34;;;;;;;;;;;;;;;23.91;51.27;98957.00;4339557;32;31724;-77
2022/08/17 02:24:03;;;;;;;;;;;;;;;23.78;51.34;98960.62;4345243;32;34131;-77
2022/08/17 02:26:32;;;;;;;;;;;;;;;23.76;51.39;98965.19;4338925;32;34339;-75
2022/08/17 02:29:02;;;;;;;;;;;;;;;23.84;50.97;98965.41;4338678;32;33172;-76
2022/08/17 02:31:31;;;;;;;;;;;;;;;23.70;51.33;98962.97;4332092;32;34733;-77
2022/08/17 02:34:02;;;;;;;;;;;;;;;23.77;51.24;98956.25;4340471;33;33516;-77
2022/08/17 02:36:33;;;;;;;;;;;;;;;23.64;51.55;98968.78;4345278;32;33826;-77
2022/08/17 02:39:01;;;;;;;;;;;;;;;23.75;51.46;98966.16;4339038;32;33982;-77
2022/08/17 02:41:30;;;;;;;;;;;;;;;23.70;51.38;98968.28;4340336;32;34104;-77
2022/08/17 02:43:58;;;;;;;;;;;;;;;23.68;51.54;98972.87;4337311;32;34258;-76
2022/08/17 02:46:29;;;;;;;;;;;;;;;23.56;51.83;98968.56;4341899;32;34245;-76
2022/08/17 02:48:57;;;;;;;;;;;;;;;23.59;51.65;98966.50;4341098;33;33386;-76
2022/08/17 02:51:26;;;;;;;;;;;;;;;23.67;51.55;98963.22;4340182;32;33852;-76
2022/08/17 02:53:54;;;;;;;;;;;;;;;23.59;51.72;98970.94;4340488;33;34856;-76
2022/08/17 02:56:43;;;;;;;;;;;;;;;23.37;52.50;98964.69;4339811;32;34436;-76
2022/08/17 02:59:12;;;;;;;;;;;;;;;23.53;52.02;98968.78;4343969;32;32791;-76
2022/08/17 03:01:41;;;;;;;;;;;;;;;23.41;52.41;98965.28;4339737;32;33825;-76
2022/08/17 03:04:10;;;;;;;;;;;;;;;23.32;52.79;98960.72;4338612;32;33612;-77
2022/08/17 03:06:39;;;;;;;;;;;;;;;23.24;53.27;98973.69;4339960;32;33538;-77
2022/08/17 03:09:07;;;;;;;;;;;;;;;22.91;53.96;98968.19;4345173;32;33281;-77
2022/08/17 03:11:36;;;;;;;;;;;;;;;23.14;53.57;98976.19;4336502;32;34598;-76
2022/08/17 03:14:04;;;;;;;;;;;;;;;23.20;53.49;98973.91;4338071;32;34771;-76
2022/08/17 03:16:33;;;;;;;;;;;;;;;23.04;54.13;98976.06;4339367;32;33934;-77
2022/08/17 03:19:04;;;;;;;;;;;;;;;23.06;54.20;98976.78;4339438;32;34246;-77
2022/08/17 03:21:32;;;;;;;;;;;;;;;23.05;54.30;98980.41;4344577;32;33668;-77
2022/08/17 03:24:01;;;;;;;;;;;;;;;23.09;54.04;98975.69;4334351;32;34672;-75
2022/08/17 03:26:36;;;;;;;;;;;;;;;23.05;53.99;98974.25;4339762;32;34930;-76
2022/08/17 03:29:04;;;;;;;;;;;;;;;23.02;53.85;98975.31;4338720;32;34205;-76
2022/08/17 03:31:33;;;;;;;;;;;;;;;23.05;53.93;98974.25;4343951;32;34538;-77
2022/08/17 03:34:06;;;;;;;;;;;;;;;22.92;54.21;98977.78;4336501;32;33535;-75
2022/08/17 03:36:34;;;;;;;;;;;;;;;22.69;54.88;98981.31;4339765;32;34035;-77
2022/08/17 03:39:03;;;;;;;;;;;;;;;22.73;54.85;98982.78;4339717;32;34079;-77
2022/08/17 03:41:32;;;;;;;;;;;;;;;22.92;54.25;98977.78;4339584;32;34523;-76
2022/08/17 03:44:00;;;;;;;;;;;;;;;22.69;55.10;98992.75;4340124;32;34350;-76
2022/08/17 03:57:35;;;;;;;;;;;;;;;22.69;55.77;98995.41;4336072;32;34248;-77
2022/08/17 04:00:04;;;;;;;;;;;;;;;22.73;55.64;98993.34;4345882;33;33724;-76
2022/08/17 04:02:39;;;;;;;;;;;;;;;22.79;55.29;98991.09;4339351;32;34482;-76
2022/08/17 04:05:09;;;;;;;;;;;;;;;22.86;55.02;98990.62;4335670;32;33483;-76
2022/08/17 04:07:37;;;;;;;;;;;;;;;22.87;54.79;98989.69;4315317;32;797294;-76
2022/08/17 04:10:06;;;;;;;;;;;;;;;22.88;54.85;98994.00;4345008;32;33254;-77
2022/08/17 04:12:43;;;;;;;;;;;;;;;22.82;54.93;98999.75;4338842;32;33227;-76
2022/08/17 04:15:12;;;;;;;;;;;;;;;22.87;54.94;99001.09;4336557;32;33784;-76
2022/08/17 04:17:43;;;;;;;;;;;;;;;22.94;54.62;99012.91;4337970;32;34068;-77
2022/08/17 04:20:13;;;;;;;;;;;;;;;22.84;55.12;99008.44;4337971;32;32777;-77
2022/08/17 04:22:54;;;;;;;;;;;;;;;22.90;54.97;99008.78;4343541;32;33772;-77
2022/08/17 04:25:24;;;;;;;;;;;;;;;23.04;54.78;99006.97;4337671;32;33858;-77
2022/08/17 04:27:52;;;;;;;;;;;;;;;22.96;54.94;99011.00;4339108;32;34014;-76
2022/08/17 04:30:21;;;;;;;;;;;;;;;23.14;53.91;99007.94;4336293;32;34032;-77
2022/08/17 04:32:52;;;;;;;;;;;;;;;23.14;54.71;99007.94;4341287;32;34681;-76
2022/08/17 04:35:36;;;;;;;;;;;;;;;23.27;53.96;99008.72;4344654;32;34981;-76
2022/08/17 04:38:06;;;;;;;;;;;;;;;23.38;53.50;99006.06;4335666;32;33836;-76
2022/08/17 04:43:23;;;;;;;;;;;;;;;23.43;53.34;99019.78;4339220;32;33789;-76
2022/08/17 04:45:53;;;;;;;;;;;;;;;23.50;53.26;99014.03;4336456;32;34748;-76
2022/08/17 04:48:26;;;;;;;;;;;;;;;23.37;53.90;99017.63;4334636;32;34039;-76
2022/08/17 04:51:09;;;;;;;;;;;;;;;23.55;53.31;99017.16;4338300;32;34008;-76
2022/08/17 04:53:38;;;;;;;;;;;;;;;23.73;52.62;99021.06;4337816;32;33974;-77
2022/08/17 04:56:07;;;;;;;;;;;;;;;23.73;52.46;99018.41;4338491;32;34306;-76
2022/08/17 04:58:44;;;;;;;;;;;;;;;23.74;52.90;99033.31;4338318;32;33972;-76
2022/08/17 05:01:13;;;;;;;;;;;;;;;23.62;53.29;99028.94;4344536;33;32777;-76
2022/08/17 05:03:41;;;;;;;;;;;;;;;23.83;52.68;99029.97;4333595;32;34243;-78
2022/08/17 05:06:11;;;;;;;;;;;;;;;23.88;52.88;99034.06;4328325;32;35200;-76
2022/08/17 05:08:40;;;;;;;;;;;;;;;23.93;52.58;99029.25;4337850;32;34564;-77
2022/08/17 05:11:08;;;;;;;;;;;;;;;24.13;51.85;99038.25;4342087;32;33534;-76
2022/08/17 05:13:36;;;;;;;;;;;;;;;24.29;51.72;99044.00;4337496;32;33919;-76
2022/08/17 05:16:07;;;;;;;;;;;;;;;24.52;52.26;99047.47;4331102;32;33650;-75
2022/08/17 05:18:37;;;;;;;;;;;;;;;24.55;51.47;99049.91;4327439;32;34574;-76
2022/08/17 05:21:06;;;;;;;;;;;;;;;24.39;51.83;99047.59;4337586;32;33127;-76
2022/08/17 05:23:36;;;;;;;;;;;;;;;24.65;50.71;99047.34;4343031;32;34212;-76
2022/08/17 05:26:12;;;;;;;;;;;;;;;25.09;49.72;99048.13;4333786;32;32746;-76
2022/08/17 05:28:54;;;;;;;;;;;;;;;25.41;48.93;99039.28;4337422;32;33995;-77
2022/08/17 05:31:27;;;;;;;;;;;;;;;25.48;49.67;99053.72;4334515;32;33373;-78
2022/08/17 05:33:55;;;;;;;;;;;;;;;25.48;49.06;99048.41;4331007;32;33867;-77
2022/08/17 05:36:24;;;;;;;;;;;;;;;25.62;48.88;99052.53;4341238;33;33937;-76
2022/08/17 05:39:14;;;;;;;;;;;;;;;26.46;45.79;99052.28;4336858;33;33669;-78
2022/08/17 05:41:45;;;;;;;;;;;;;;;26.99;45.58;99054.63;4336993;33;32928;-77
2022/08/17 05:44:14;;;;;;;;;;;;;;;27.46;44.17;99044.09;4338490;33;33579;-78
2022/08/17 05:46:43;;;;;;;;;;;;;;;27.69;43.80;99049.94;4341343;32;33903;-78
2022/08/17 05:49:14;;;;;;;;;;;;;;;27.86;43.52;99051.84;4346450;32;34081;-78
2022/08/17 05:51:47;;;;;;;;;;;;;;;28.13;43.22;99052.03;4333631;32;32806;-76
2022/08/17 05:54:32;;;;;;;;;;;;;;;28.16;42.08;99047.22;4336973;33;33993;-76
2022/08/17 05:57:08;;;;;;;;;;;;;;;28.28;42.21;99054.03;4338773;33;34939;-76
2022/08/17 05:59:39;;;;;;;;;;;;;;;28.19;42.93;99054.91;4345107;33;34727;-78
2022/08/17 06:02:10;;;;;;;;;;;;;;;28.04;42.62;99053.75;4344656;33;33353;-77
2022/08/17 06:04:44;;;;;;;;;;;;;;;27.86;42.69;99046.53;4339619;33;34426;-78
2022/08/17 06:07:14;;;;;;;;;;;;;;;27.92;42.90;99053.09;4326815;33;34726;-77
2022/08/17 06:09:45;;;;;;;;;;;;;;;27.66;43.74;99051.03;4331558;33;33277;-76
2022/08/17 06:12:33;;;;;;;;;;;;;;;27.58;43.47;99056.25;4341236;33;34249;-76
2022/08/17 06:15:06;;;;;;;;;;;;;;;27.50;43.01;99057.94;4343953;33;33940;-77
2022/08/17 06:17:34;;;;;;;;;;;;;;;27.55;43.47;99053.06;4337390;32;33622;-77
2022/08/17 06:20:05;;;;;;;;;;;;;;;27.32;43.70;99057.84;4332425;32;34227;-76
2022/08/17 06:22:36;;;;;;;;;;;;;;;27.54;44.25;99054.84;4335385;32;33719;-77
2022/08/17 06:25:07;;;;;;;;;;;;;;;27.39;44.78;99050.97;4335294;33;33832;-78
2022/08/17 06:27:38;;;;;;;;;;;;;;;27.51;44.48;99056.97;4324645;33;34181;-76
2022/08/17 06:30:08;;;;;;;;;;;;;;;27.61;44.29;99055.97;4334294;33;34716;-77
2022/08/17 06:32:37;;;;;;;;;;;;;;;27.53;44.64;99052.34;4332022;33;34240;-78
2022/08/17 06:35:07;;;;;;;;;;;;;;;27.48;45.16;99051.94;4339493;33;33463;-76
2022/08/17 06:37:47;;;;;;;;;;;;;;;27.43;45.02;99057.69;4346225;33;33873;-76
2022/08/17 06:40:22;;;;;;;;;;;;;;;27.66;45.03;99063.53;4339535;33;34782;-76
2022/08/17 06:42:53;;;;;;;;;;;;;;;27.70;44.28;99067.59;4327679;33;33261;-76
2022/08/17 06:45:35;;;;;;;;;;;;;;;27.84;43.75;99071.66;4328598;33;34807;-78
2022/08/17 06:48:06;;;;;;;;;;;;;;;27.74;44.30;99076.13;4340472;33;33448;-77
2022/08/17 06:50:36;;;;;;;;;;;;;;;27.81;44.13;99078.09;4345260;33;34808;-77
2022/08/17 06:53:05;;;;;;;;;;;;;;;27.77;44.36;99082.00;4339164;33;34375;-76
2022/08/17 06:55:37;;;;;;;;;;;;;;;28.00;43.83;99085.16;4340681;33;34472;-77
2022/08/17 06:58:06;;;;;;;;;;;;;;;28.17;43.89;99075.56;4339695;33;34566;-77
2022/08/17 07:00:44;;;;;;;;;;;;;;;28.26;44.00;99076.50;4341833;33;33908;-77
2022/08/17 07:03:15;;;;;;;;;;;;;;;28.34;42.70;99079.25;4344218;32;33462;-77
2022/08/17 07:05:44;;;;;;;;;;;;;;;28.55;42.75;99083.53;4340583;33;34318;-76
2022/08/17 07:08:17;;;;;;;;;;;;;;;28.60;42.00;99079.41;4338912;33;35391;-75
2022/08/17 07:10:49;;;;;;;;;;;;;;;28.28;42.58;99083.38;4333122;33;34240;-78
2022/08/17 07:13:24;;;;;;;;;;;;;;;28.42;42.08;99083.88;4343748;33;33026;-77
2022/08/17 07:15:54;;;;;;;;;;;;;;;28.73;41.56;99081.75;4341376;33;34438;-78
2022/08/17 07:18:25;;;;;;;;;;;;;;;29.12;40.16;99079.63;4340122;33;34804;-77
2022/08/17 07:20:55;;;;;;;;;;;;;;;29.25;40.15;99073.88;4339991;33;34024;-77
2022/08/17 07:23:25;;;;;;;;;;;;;;;29.06;41.12;99079.37;4337158;33;33919;-78
2022/08/17 07:25:56;;;;;;;;;;;;;;;29.06;40.76;99079.37;4344685;33;33616;-77
2022/08/17 07:28:25;;;;;;;;;;;;;;;29.20;40.78;99076.19;4339844;32;33733;-77
2022/08/17 07:30:54;;;;;;;;;;;;;;;29.38;39.98;99077.97;4340601;33;33833;-76
2022/08/17 07:33:24;;;;;;;;;;;;;;;29.36;39.76;99078.16;4340500;33;33359;-77
2022/08/17 07:35:53;;;;;;;;;;;;;;;29.50;39.18;99074.06;4346107;33;33594;-77
2022/08/17 07:38:23;;;;;;;;;;;;;;;29.56;39.35;99081.47;4340572;33;34907;-78
2022/08/17 07:41:03;;;;;;;;;;;;;;;29.58;38.78;99079.47;4340447;33;33645;-78
2022/08/17 07:43:32;;;;;;;;;;;;;;;29.59;39.64;99070.44;4329089;33;33874;-78
2022/08/17 07:48:53;;;;;;;;;;;;;;;29.94;37.80;99077.53;4331054;33;33893;-75
2022/08/17 07:51:26;;;;;;;;;;;;;;;29.81;38.36;99077.13;4328417;33;33526;-77
2022/08/17 07:53:55;;;;;;;;;;;;;;;30.01;37.70;99074.22;4336406;33;33332;-77
2022/08/17 07:56:44;;;;;;;;;;;;;;;30.39;37.14;99072.91;4340184;33;35044;-78
2022/08/17 07:59:16;;;;;;;;;;;;;;;30.12;36.74;99077.44;4340438;33;34066;-79
2022/08/17 08:02:02;;;;;;;;;;;;;;;30.39;37.08;99081.75;4341291;33;33471;-77
2022/08/17 08:04:35;;;;;;;;;;;;;;;30.56;36.69;99085.31;4332525;33;33686;-77
2022/08/17 08:07:24;;;;;;;;;;;;;;;30.64;35.80;99089.88;4325331;33;34555;-78
2022/08/17 08:10:00;;;;;;;;;;;;;;;30.73;35.73;99082.69;4336188;33;33933;-77
2022/08/17 08:12:32;;;;;;;;;;;;;;;30.70;36.23;99085.72;4341145;33;34447;-77
2022/08/17 08:15:03;;;;;;;;;;;;;;;31.09;34.46;99080.59;4340064;33;33932;-77
2022/08/17 08:17:34;;;;;;;;;;;;;;;31.10;34.78;99079.59;4345294;33;32886;-77
2022/08/17 08:20:05;;;;;;;;;;;;;;;31.09;35.01;99088.63;4340039;33;33761;-76
2022/08/17 08:22:56;;;;;;;;;;;;;;;31.21;33.75;99078.41;4330449;33;34187;-78
2022/08/17 08:25:26;;;;;;;;;;;;;;;30.98;34.32;99081.78;4333250;33;34277;-77
2022/08/17 08:28:09;;;;;;;;;;;;;;;31.09;34.60;99085.94;4326118;33;34180;-77
2022/08/17 08:30:41;;;;;;;;;;;;;;;31.36;32.84;99081.25;4331067;33;34590;-77
2022/08/17 08:33:28;;;;;;;;;;;;;;;31.24;32.78;99078.06;4334761;33;34239;-77
2022/08/17 08:35:58;;;;;;;;;;;;;;;31.30;33.06;99081.94;4340466;33;33426;-79
2022/08/17 08:38:29;;;;;;;;;;;;;;;31.15;32.64;99076.41;4340017;33;33053;-77
2022/08/17 08:41:01;;;;;;;;;;;;;;;31.29;32.64;99080.25;4325539;33;34740;-77
2022/08/17 08:43:34;;;;;;;;;;;;;;;31.57;32.34;99078.09;4330990;33;34909;-76
2022/08/17 08:46:05;;;;;;;;;;;;;;;31.61;32.18;99085.63;4330574;33;32258;-76
2022/08/17 08:48:47;;;;;;;;;;;;;;;31.59;31.89;99073.41;4327033;32;34095;-78
2022/08/17 08:51:29;;;;;;;;;;;;;;;31.54;31.07;99070.38;4339251;33;34096;-76
2022/08/17 08:53:59;;;;;;;;;;;;;;;31.67;30.99;99068.00;4338030;33;33525;-77
2022/08/17 08:56:31;;;;;;;;;;;;;;;31.95;31.90;99067.66;4341326;33;32360;-77
2022/08/17 08:59:02;;;;;;;;;;;;;;;31.81;31.52;99061.94;4344423;33;33629;-78
2022/08/17 09:01:31;;;;;;;;;;;;;;;32.32;28.94;99072.34;4338798;33;33965;-77
2022/08/17 09:04:09;;;;;;;;;;;;;;;32.00;29.05;99065.28;4337749;33;33941;-76
2022/08/17 09:07:00;;;;;;;;;;;;;;;32.28;29.31;99066.50;4339687;33;33649;-78
2022/08/17 09:09:35;;;;;;;;;;;;;;;32.17;28.99;99064.19;4339614;33;32961;-76
2022/08/17 09:12:07;;;;;;;;;;;;;;;32.34;28.37;99072.19;4344814;33;33900;-77
2022/08/17 09:14:38;;;;;;;;;;;;;;;32.11;29.13;99070.25;4338841;33;34627;-77
2022/08/17 09:17:15;;;;;;;;;;;;;;;32.23;28.65;99068.00;4340428;33;32857;-78
2022/08/17 09:19:46;;;;;;;;;;;;;;;32.28;28.68;99079.91;4343407;33;34147;-76
2022/08/17 09:22:20;;;;;;;;;;;;;;;32.38;28.71;99082.38;4342927;33;33875;-76
2022/08/17 09:24:49;;;;;;;;;;;;;;;32.46;29.36;99082.34;4349424;33;34737;-76
2022/08/17 09:27:18;;;;;;;;;;;;;;;32.47;29.31;99077.78;4339018;33;34208;-77
2022/08/17 09:29:49;;;;;;;;;;;;;;;32.26;29.64;99078.41;4344105;33;33654;-77
2022/08/17 09:32:19;;;;;;;;;;;;;;;32.59;28.78;99080.94;4342843;33;33874;-78
2022/08/17 09:34:49;;;;;;;;;;;;;;;32.54;29.18;99080.66;4345863;32;35359;-77
2022/08/17 09:37:21;;;;;;;;;;;;;;;32.55;28.91;99077.78;4343713;33;33654;-78
2022/08/17 09:39:51;;;;;;;;;;;;;;;32.57;28.64;99086.50;4332555;33;33282;-77
2022/08/17 09:42:22;;;;;;;;;;;;;;;32.59;27.92;99075.59;4337766;33;33183;-77
2022/08/17 09:44:54;;;;;;;;;;;;;;;32.30;28.49;99072.50;4343234;33;33374;-76
2022/08/17 09:47:25;;;;;;;;;;;;;;;32.51;28.72;99074.62;4334566;33;33800;-77
2022/08/17 09:49:54;;;;;;;;;;;;;;;32.75;28.44;99071.97;4333579;33;34232;-76
2022/08/17 09:52:23;;;;;;;;;;;;;;;32.81;28.59;99071.25;4344169;33;33963;-77
2022/08/17 09:54:52;;;;;;;;;;;;;;;32.70;28.52;99062.59;4336049;33;34494;-77
2022/08/17 09:57:24;;;;;;;;;;;;;;;32.89;29.20;99066.66;4347685;32;33099;-78
2022/08/17 10:00:17;;;;;;;;;;;;;;;33.10;28.11;99070.53;4340763;33;33884;-76
2022/08/17 10:02:54;;;;;;;;;;;;;;;33.12;28.55;99066.66;4328640;33;35106;-78
2022/08/17 10:05:24;;;;;;;;;;;;;;;33.22;27.90;99068.28;4335228;33;33676;-77
2022/08/17 10:07:55;;;;;;;;;;;;;;;33.29;27.36;99067.34;4342402;33;33054;-77
2022/08/17 10:10:25;;;;;;;;;;;;;;;33.52;27.45;99072.69;4335513;33;34529;-77
2022/08/17 10:12:55;;;;;;;;;;;;;;;33.28;27.34;99065.69;4337162;33;33502;-77
2022/08/17 10:15:26;;;;;;;;;;;;;;;33.42;27.64;99074.81;4335276;32;34593;-77
2022/08/17 10:18:20;;;;;;;;;;;;;;;33.86;27.11;99074.06;4343272;33;33256;-77
2022/08/17 10:26:11;;;;;;;;;;;;;;;33.17;26.67;99071.50;4328001;32;34444;-76
2022/08/17 10:26:27;;;;;;;;;;;;;;;33.00;26.88;99075.31;4344337;32;33809;-76
2022/08/17 10:29:15;;;;;;;;;;;;;;;32.86;25.82;99071.53;4340956;32;34090;-78
2022/08/17 10:31:44;;;;;;;;;;;;;;;33.25;26.50;99065.22;4330838;33;33238;-78
2022/08/17 10:34:21;;;;;;;;;;;;;;;33.76;26.58;99057.38;4329127;33;34998;-78
2022/08/17 10:36:53;;;;;;;;;;;;;;;34.02;26.46;99059.56;4336923;33;34637;-77
2022/08/17 10:39:24;;;;;;;;;;;;;;;33.94;26.20;99062.34;4335866;32;33825;-76
2022/08/17 10:41:53;;;;;;;;;;;;;;;34.06;26.35;99065.41;4338340;32;34129;-77
2022/08/17 10:44:23;;;;;;;;;;;;;;;34.01;24.10;99063.28;4336055;32;34227;-77
2022/08/17 10:47:08;;;;;;;;;;;;;;;34.00;24.37;99067.00;4336286;32;34079;-77
2022/08/17 10:49:43;;;;;;;;;;;;;;;33.68;25.07;99063.63;4336401;32;33106;-77
2022/08/17 10:52:26;;;;;;;;;;;;;;;33.67;24.91;99061.97;4342727;32;34594;-77
2022/08/17 10:55:10;;;;;;;;;;;;;;;33.97;24.81;99057.47;4335444;32;33739;-77
2022/08/17 10:57:40;;;;;;;;;;;;;;;34.13;23.75;99055.59;4337592;32;34561;-78
2022/08/17 11:00:26;;;;;;;;;;;;;;;34.04;23.96;99054.81;4336764;32;35359;-77
2022/08/17 11:02:56;;;;;;;;;;;;;;;33.85;24.52;99050.84;4323936;32;34528;-77
2022/08/17 11:05:42;;;;;;;;;;;;;;;34.20;24.19;99051.97;4333765;32;34187;-77
2022/08/17 11:08:22;;;;;;;;;;;;;;;34.58;24.29;99053.66;4343281;32;34697;-76
2022/08/17 11:10:58;;;;;;;;;;;;;;;34.71;23.92;99053.81;4341651;32;33663;-76
2022/08/17 11:13:29;;;;;;;;;;;;;;;34.71;23.39;99039.50;4335763;32;33432;-76
2022/08/17 11:16:02;;;;;;;;;;;;;;;35.04;24.85;99047.91;4335513;33;34655;-76
2022/08/17 11:18:51;;;;;;;;;;;;;;;34.73;26.28;99049.06;4331367;33;33470;-76
2022/08/17 11:21:38;;;;;;;;;;;;;;;34.68;25.33;99056.91;4333185;33;33500;-77
2022/08/17 11:24:17;;;;;;;;;;;;;;;34.40;26.30;99048.69;4344825;33;33895;-77
2022/08/17 11:27:00;;;;;;;;;;;;;;;34.32;26.44;99046.94;4339563;33;33042;-78
2022/08/17 11:29:30;;;;;;;;;;;;;;;34.67;26.02;99047.13;4338967;33;33895;-77
2022/08/17 11:32:00;;;;;;;;;;;;;;;34.87;26.17;99041.97;4339661;33;33105;-78
2022/08/17 11:34:30;;;;;;;;;;;;;;;35.28;25.10;99033.22;4336837;33;34365;-78
2022/08/17 11:37:04;;;;;;;;;;;;;;;35.07;25.40;99038.59;4345403;33;33914;-76
2022/08/17 11:39:51;;;;;;;;;;;;;;;35.02;25.63;99031.91;4338123;33;34751;-77
2022/08/17 11:42:29;;;;;;;;;;;;;;;34.94;25.25;99032.06;4333463;32;32663;-77
2022/08/17 11:44:58;;;;;;;;;;;;;;;34.93;25.73;99034.94;4340434;33;33499;-78
2022/08/17 11:53:42;;;;;;;;;;;;;;;35.17;24.51;99021.09;4340800;33;33856;-77
2022/08/17 11:56:12;;;;;;;;;;;;;;;35.23;24.68;99016.75;4345629;33;33789;-77
2022/08/17 11:58:42;;;;;;;;;;;;;;;35.17;24.96;99023.78;4331111;33;33637;-77
2022/08/17 12:01:11;;;;;;;;;;;;;;;35.64;23.41;99016.03;4324667;33;33390;-76
2022/08/17 12:03:44;;;;;;;;;;;;;;;35.79;23.08;99018.63;4325173;33;34220;-77
2022/08/17 12:06:31;;;;;;;;;;;;;;;35.84;23.53;99010.75;4337910;33;34254;-77
2022/08/17 12:09:01;;;;;;;;;;;;;;;35.58;23.26;99012.22;4332438;33;33664;-77
2022/08/17 12:11:31;;;;;;;;;;;;;;;35.76;23.28;99008.22;4328270;32;33677;-78
2022/08/17 12:14:25;;;;;;;;;;;;;;;35.75;22.83;99003.84;4336942;33;32886;-77
2022/08/17 12:17:14;;;;;;;;;;;;;;;35.65;22.28;99005.03;4339471;33;33755;-77
2022/08/17 12:20:10;;;;;;;;;;;;;;;36.17;21.52;99001.97;4337952;33;35094;-77
2022/08/17 12:22:42;;;;;;;;;;;;;;;36.45;21.22;99002.69;4337341;33;33884;-78
2022/08/17 12:25:11;;;;;;;;;;;;;;;36.37;21.46;98993.94;4342654;33;33781;-77
2022/08/17 12:27:44;;;;;;;;;;;;;;;36.29;20.92;98992.25;4339543;33;33775;-78
2022/08/17 12:30:34;;;;;;;;;;;;;;;36.75;20.99;98991.53;4327646;33;33898;-77
2022/08/17 12:33:02;;;;;;;;;;;;;;;37.35;21.33;98988.81;4339251;33;33996;-77
2022/08/17 12:35:33;;;;;;;;;;;;;;;37.37;20.61;98990.28;4330939;33;33114;-78
2022/08/17 12:38:01;;;;;;;;;;;;;;;37.69;19.39;98990.44;4342802;33;34692;-79
2022/08/17 12:40:31;;;;;;;;;;;;;;;37.85;19.83;98985.59;4339405;33;34904;-77
2022/08/17 12:43:00;;;;;;;;;;;;;;;37.91;19.81;98985.59;4339355;33;33814;-77
2022/08/17 12:45:29;;;;;;;;;;;;;;;38.14;19.37;98986.97;4339720;33;33095;-77
2022/08/17 12:48:06;;;;;;;;;;;;;;;38.38;19.34;98993.50;4342747;33;33782;-77
2022/08/17 12:50:35;;;;;;;;;;;;;;;38.14;18.85;98990.50;4343760;33;34702;-77
2022/08/17 12:53:05;;;;;;;;;;;;;;;37.74;18.73;98977.13;4338432;33;34914;-79
2022/08/17 12:55:34;;;;;;;;;;;;;;;37.97;19.47;98981.16;4327522;32;33565;-77
2022/08/17 12:58:03;;;;;;;;;;;;;;;38.41;18.19;98980.31;4332307;33;34883;-78
2022/08/17 13:00:33;;;;;;;;;;;;;;;38.52;18.41;98980.72;4342021;33;33905;-76
2022/08/17 13:03:04;;;;;;;;;;;;;;;38.36;17.54;98987.47;4329237;33;33655;-77
2022/08/17 13:05:35;;;;;;;;;;;;;;;38.22;17.64;98987.53;4330250;33;33325;-78
2022/08/17 13:08:04;;;;;;;;;;;;;;;38.38;17.78;98982.66;4326981;33;33157;-78
2022/08/17 13:10:34;;;;;;;;;;;;;;;38.66;17.56;98981.44;4326953;33;34007;-78
2022/08/17 13:13:04;;;;;;;;;;;;;;;38.84;17.12;98981.53;4339883;33;33508;-77
2022/08/17 13:15:35;;;;;;;;;;;;;;;38.60;17.84;98978.56;4335142;33;33643;-76
2022/08/17 13:18:06;;;;;;;;;;;;;;;37.95;18.02;98984.09;4330198;33;33851;-78
2022/08/17 13:20:35;;;;;;;;;;;;;;;37.70;18.15;98981.28;4336601;33;35087;-77
2022/08/17 13:23:05;;;;;;;;;;;;;;;37.94;18.17;98970.78;4339024;33;34230;-76
2022/08/17 13:25:40;;;;;;;;;;;;;;;38.54;18.30;98974.03;4337215;33;33754;-78
2022/08/17 13:28:16;;;;;;;;;;;;;;;38.83;17.57;98982.56;4338830;33;33940;-77
2022/08/17 13:31:12;;;;;;;;;;;;;;;39.12;17.15;98985.69;4332839;33;35136;-77
2022/08/17 13:33:41;;;;;;;;;;;;;;;39.31;16.11;98972.97;4336101;33;33778;-76
2022/08/17 13:36:12;;;;;;;;;;;;;;;39.53;15.82;98971.50;4331803;33;33111;-77
2022/08/17 13:38:58;;;;;;;;;;;;;;;39.70;16.43;98971.72;4334646;33;34489;-78
2022/08/17 13:41:32;;;;;;;;;;;;;;;39.04;15.96;98973.22;4331503;32;34207;-78